createdAt,value
2023-05-18T00:05:18.852Z,19.2
2023-05-18T00:10:39.635Z,19.2
2023-05-18T00:16:01.329Z,19.2
2023-05-18T00:21:23.117Z,19.2
2023-05-18T00:26:43.816Z,19.2
2023-05-18T00:32:20.438Z,19.2
2023-05-18T00:37:58.087Z,19.2
2023-05-18T00:43:49.233Z,19.2
2023-05-18T00:49:41.535Z,19.2
2023-05-18T00:55:18.023Z,19.2
2023-05-18T01:01:09.076Z,19.2
2023-05-18T01:06:30.385Z,19.1
2023-05-18T01:12:22.596Z,19.2
2023-05-18T01:18:14.065Z,19.2
2023-05-18T01:24:05.191Z,19.1
2023-05-18T01:29:41.911Z,19.1
2023-05-18T01:35:17.953Z,19.1
2023-05-18T01:41:11.957Z,19.1
2023-05-18T01:46:49.012Z,19.1
2023-05-18T01:52:25.557Z,19.1
2023-05-18T01:58:01.781Z,19.1
2023-05-18T02:03:55.964Z,19.1
2023-05-18T02:09:30.954Z,19.1
2023-05-18T02:15:22.476Z,19.1
2023-05-18T02:21:16.567Z,19.1
2023-05-18T02:27:09.738Z,19.1
2023-05-18T02:32:46.278Z,19.1
2023-05-18T02:38:23.529Z,19.1
2023-05-18T02:44:14.512Z,19.1
2023-05-18T02:49:51.494Z,19.1
2023-05-18T02:55:42.941Z,19.1
2023-05-18T03:01:36.471Z,19.1
2023-05-18T03:07:29.949Z,19.1
2023-05-18T03:13:21.825Z,19.1
2023-05-18T03:18:58.493Z,19.1
2023-05-18T03:24:20.501Z,19.1
2023-05-18T03:29:57.118Z,19.1
2023-05-18T03:35:49.546Z,19.1
2023-05-18T03:41:41.129Z,19.1
2023-05-18T03:47:17.501Z,19.1
2023-05-18T03:53:09.187Z,19.1
2023-05-18T03:59:01.767Z,19.1
2023-05-18T04:04:54.964Z,19.1
2023-05-18T04:10:48.562Z,19.1
2023-05-18T04:16:40.523Z,19.1
2023-05-18T04:22:33.899Z,19.1
2023-05-18T04:28:25.164Z,19.1
2023-05-18T04:34:15.985Z,19.1
2023-05-18T04:39:53.875Z,19.1
2023-05-18T04:45:45.724Z,19.1
2023-05-18T04:51:38.417Z,19
2023-05-18T04:57:14.810Z,19
2023-05-18T05:03:06.342Z,19.1
2023-05-18T05:09:01.432Z,19
2023-05-18T05:14:53.473Z,19
2023-05-18T05:20:45.387Z,19.1
2023-05-18T05:26:38.141Z,19.1
2023-05-18T05:32:15.024Z,19.1
2023-05-18T05:38:07.148Z,19.1
2023-05-18T05:44:00.960Z,19.1
2023-05-18T05:49:52.965Z,19.1
2023-05-18T05:55:44.446Z,19.1
2023-05-18T06:01:35.932Z,19.1
2023-05-18T06:07:29.261Z,19.1
2023-05-18T06:13:23.094Z,19.1
2023-05-18T06:19:19.319Z,19.1
2023-05-18T06:25:10.917Z,19.1
2023-05-18T06:31:02.504Z,19
2023-05-18T06:36:55.284Z,19.1
2023-05-18T06:42:32.535Z,19.1
2023-05-18T06:48:24.217Z,19
2023-05-18T06:54:00.389Z,19.1
2023-05-18T06:59:36.925Z,19.1
2023-05-18T07:05:29.352Z,19.1
2023-05-18T07:11:06.067Z,19.1
2023-05-18T07:16:42.258Z,19.1
2023-05-18T07:22:36.969Z,19.1
2023-05-18T07:28:28.353Z,19.1
2023-05-18T07:34:05.496Z,19.1
2023-05-18T07:39:57.688Z,19.1
2023-05-18T07:45:34.506Z,19.1
2023-05-18T07:51:26.933Z,19.1
2023-05-18T07:57:02.698Z,19.1
2023-05-18T08:02:38.674Z,19.1
2023-05-18T08:08:16.615Z,19.1
2023-05-18T08:13:52.476Z,19.1
2023-05-18T08:20:01.478Z,19
2023-05-18T08:25:38.489Z,19
2023-05-18T08:31:15.718Z,19
2023-05-18T08:36:53.146Z,19.1
2023-05-18T08:42:14.467Z,19.1
2023-05-18T08:48:06.253Z,19
2023-05-18T08:53:45.598Z,19
2023-05-18T08:59:22.412Z,19
2023-05-18T09:04:59.323Z,19
2023-05-18T09:10:35.735Z,19
2023-05-18T09:16:14.614Z,19
2023-05-18T09:21:51.337Z,19
2023-05-18T09:27:27.810Z,19
2023-05-18T09:33:06.923Z,19
2023-05-18T09:38:44.199Z,19
2023-05-18T09:44:05.091Z,19
2023-05-18T09:49:27.403Z,19
2023-05-18T09:55:03.031Z,19
2023-05-18T10:00:40.593Z,19
2023-05-18T10:06:18.281Z,19
2023-05-18T10:11:24.179Z,19
2023-05-18T10:16:29.805Z,19
2023-05-18T10:21:49.832Z,19
2023-05-18T10:27:27.861Z,19
2023-05-18T10:33:17.253Z,19
2023-05-18T10:39:00.889Z,19
2023-05-18T10:44:09.561Z,19
2023-05-18T10:49:15.539Z,19
2023-05-18T11:01:12.037Z,19
2023-05-18T11:06:32.982Z,19
2023-05-18T11:11:54.824Z,19
2023-05-18T11:17:30.952Z,19
2023-05-18T11:23:06.585Z,19
2023-05-18T11:28:59.185Z,18.9
2023-05-18T11:34:56.247Z,19
2023-05-18T11:40:48.091Z,19
2023-05-18T11:46:09.480Z,19
2023-05-18T11:51:48.484Z,19
2023-05-18T11:57:27.690Z,19
2023-05-18T12:08:32.957Z,18.9
2023-05-18T12:13:53.932Z,19
2023-05-18T12:19:32.068Z,18.9
2023-05-18T12:25:07.201Z,18.9
2023-05-18T12:30:43.296Z,18.9
2023-05-18T12:36:05.975Z,18.9
2023-05-18T12:41:39.837Z,18.9
2023-05-18T12:47:34.485Z,18.9
2023-05-18T12:53:28.472Z,18.9
2023-05-18T12:59:19.756Z,18.9
2023-05-18T13:04:57.073Z,18.9
2023-05-18T13:10:34.021Z,18.9
2023-05-18T13:16:52.592Z,18.9
2023-05-18T13:22:47.545Z,18.9
2023-05-18T13:28:25.761Z,18.9
2023-05-18T13:33:46.585Z,18.9
2023-05-18T13:39:39.695Z,18.9
2023-05-18T13:45:00.957Z,18.9
2023-05-18T13:50:38.633Z,18.9
2023-05-18T13:56:16.798Z,18.9
2023-05-18T14:02:08.989Z,18.9
2023-05-18T14:07:47.338Z,18.9
2023-05-18T14:13:23.321Z,18.9
2023-05-18T14:19:15.303Z,18.9
2023-05-18T14:25:06.339Z,18.9
2023-05-18T14:30:58.465Z,18.9
2023-05-18T14:36:52.024Z,18.9
2023-05-18T14:42:27.468Z,18.9
2023-05-18T14:48:35.416Z,18.9
2023-05-18T14:54:29.036Z,18.9
2023-05-18T15:00:19.220Z,18.9
2023-05-18T15:06:13.009Z,18.9
2023-05-18T15:11:49.024Z,18.9
2023-05-18T15:17:40.086Z,18.9
2023-05-18T15:23:32.348Z,18.9
2023-05-18T15:29:25.685Z,30.3
2023-05-18T15:35:16.836Z,34.3
2023-05-18T15:41:08.755Z,33.6
2023-05-18T15:47:00.469Z,35.1
2023-05-18T15:52:36.355Z,36.4
2023-05-18T15:58:28.061Z,36.7
2023-05-18T16:04:21.201Z,37.6
2023-05-18T16:09:56.431Z,35.8
2023-05-18T16:15:35.599Z,36.8
2023-05-18T16:21:28.138Z,40.1
2023-05-18T16:26:48.680Z,40.2
2023-05-18T16:32:41.477Z,36.7
2023-05-18T16:38:32.945Z,37.5
2023-05-18T16:44:25.682Z,38.5
2023-05-18T16:50:18.390Z,36.1
2023-05-18T16:56:12.816Z,40.8
2023-05-18T17:02:16.601Z,42
2023-05-18T17:08:12.554Z,42.1
2023-05-18T17:13:51.948Z,42.4
2023-05-18T17:19:28.268Z,42.2
2023-05-18T17:25:20.541Z,42.1
2023-05-18T17:31:10.592Z,39.1
2023-05-18T17:37:02.542Z,39.4
2023-05-18T17:42:54.009Z,36.8
2023-05-18T17:48:46.666Z,38.4
2023-05-18T17:54:37.610Z,36.4
2023-05-18T18:00:13.623Z,36.2
2023-05-18T18:06:07.545Z,35.7
2023-05-18T18:11:44.055Z,35.3
2023-05-18T18:17:36.585Z,34.9
2023-05-18T18:23:13.614Z,35.6
2023-05-18T18:28:49.487Z,37.9
2023-05-18T18:34:10.898Z,36.6
2023-05-18T18:40:03.403Z,36.4
2023-05-18T18:45:54.879Z,36.4
2023-05-18T18:51:47.145Z,36.2
2023-05-18T18:57:38.818Z,35.6
2023-05-18T19:03:14.216Z,35.4
2023-05-18T19:09:07.134Z,35.8
2023-05-18T19:14:43.571Z,37.6
2023-05-18T19:20:36.535Z,36.4
2023-05-18T19:26:28.837Z,37.5
2023-05-18T19:32:21.434Z,36.3
2023-05-18T19:37:58.393Z,36.2
2023-05-18T19:43:52.792Z,35.8
2023-05-18T19:49:45.985Z,35.3
2023-05-18T19:55:36.365Z,34.6
2023-05-18T20:01:28.873Z,33.7
2023-05-18T20:07:05.873Z,32.8
2023-05-18T20:12:57.117Z,31.8
2023-05-18T20:18:49.684Z,30.8
2023-05-18T20:24:11.280Z,30.1
2023-05-18T20:29:49.714Z,29.9
2023-05-18T20:35:26.747Z,30
2023-05-18T20:41:03.818Z,29.5
2023-05-18T20:46:39.478Z,28.8
2023-05-18T20:52:31.930Z,28.1
2023-05-18T20:58:23.582Z,27.6
2023-05-18T21:04:17.892Z,27.2
2023-05-18T21:09:40.143Z,26.8
2023-05-18T21:15:16.935Z,26.5
2023-05-18T21:21:09.053Z,26.3
2023-05-18T21:27:00.373Z,26.1
2023-05-18T21:32:53.422Z,25.7
2023-05-18T21:38:44.741Z,25.4
2023-05-18T21:44:05.656Z,25.2
2023-05-18T21:49:45.094Z,24.9
2023-05-18T21:55:22.411Z,24.6
2023-05-18T22:00:58.473Z,24.4
2023-05-18T22:06:50.993Z,24.1
2023-05-18T22:12:41.878Z,23.8
2023-05-18T22:18:02.557Z,23.6
2023-05-18T22:23:51.411Z,23.4
2023-05-18T22:29:26.451Z,23.6
2023-05-18T22:35:02.789Z,26.6
2023-05-18T22:40:23.741Z,25.6
2023-05-18T22:46:14.570Z,25.3
2023-05-18T22:52:06.599Z,24.9
2023-05-18T22:57:42.994Z,24.8
2023-05-18T23:03:19.355Z,24.4
2023-05-18T23:08:55.427Z,24.3
2023-05-18T23:14:46.857Z,23.9
2023-05-18T23:20:38.936Z,23.7
2023-05-18T23:26:30.465Z,23.5
2023-05-18T23:32:22.722Z,23.3
2023-05-18T23:38:15.085Z,23.1
2023-05-18T23:44:07.268Z,22.9
2023-05-18T23:49:59.439Z,22.8
2023-05-18T23:55:50.939Z,22.6
